sensor_id;sensor_type;location;lat;lon;timestamp;P1;durP1;ratioP1;P2;durP2;ratioP2
19883;SDS011;10104;50.732;10.174;2022-12-11T00:00:05;27.70;;;17.07;;
19883;SDS011;10104;50.732;10.174;2022-12-11T00:02:28;26.80;;;17.73;;
19883;SDS011;10104;50.732;10.174;2022-12-11T00:04:50;29.93;;;17.83;;
19883;SDS011;10104;50.732;10.174;2022-12-11T00:07:11;28.47;;;18.17;;
19883;SDS011;10104;50.732;10.174;2022-12-11T00:09:32;29.53;;;18.40;;
19883;SDS011;10104;50.732;10.174;2022-12-11T00:11:54;29.87;;;18.67;;
19883;SDS011;10104;50.732;10.174;2022-12-11T00:14:16;28.43;;;17.77;;
19883;SDS011;10104;50.732;10.174;2022-12-11T00:16:38;27.97;;;17.63;;
19883;SDS011;10104;50.732;10.174;2022-12-11T00:18:59;25.97;;;16.63;;
19883;SDS011;10104;50.732;10.174;2022-12-11T00:21:21;26.97;;;17.43;;
19883;SDS011;10104;50.732;10.174;2022-12-11T00:23:42;26.70;;;16.93;;
19883;SDS011;10104;50.732;10.174;2022-12-11T00:26:05;28.03;;;17.30;;
19883;SDS011;10104;50.732;10.174;2022-12-11T00:28:33;27.50;;;16.97;;
19883;SDS011;10104;50.732;10.174;2022-12-11T00:30:54;30.93;;;19.00;;
19883;SDS011;10104;50.732;10.174;2022-12-11T00:33:16;26.77;;;17.87;;
19883;SDS011;10104;50.732;10.174;2022-12-11T00:35:42;26.80;;;17.87;;
19883;SDS011;10104;50.732;10.174;2022-12-11T00:38:04;26.60;;;17.53;;
19883;SDS011;10104;50.732;10.174;2022-12-11T00:40:26;28.47;;;18.37;;
19883;SDS011;10104;50.732;10.174;2022-12-11T00:42:47;28.77;;;17.70;;
19883;SDS011;10104;50.732;10.174;2022-12-11T00:45:09;30.10;;;17.67;;
19883;SDS011;10104;50.732;10.174;2022-12-11T00:47:32;27.33;;;16.70;;
19883;SDS011;10104;50.732;10.174;2022-12-11T00:49:53;26.73;;;16.73;;
19883;SDS011;10104;50.732;10.174;2022-12-11T00:52:14;27.83;;;17.20;;
19883;SDS011;10104;50.732;10.174;2022-12-11T00:54:38;26.93;;;17.57;;
19883;SDS011;10104;50.732;10.174;2022-12-11T00:56:59;25.37;;;16.53;;
19883;SDS011;10104;50.732;10.174;2022-12-11T00:59:21;25.30;;;16.50;;
19883;SDS011;10104;50.732;10.174;2022-12-11T01:01:42;28.80;;;17.37;;
19883;SDS011;10104;50.732;10.174;2022-12-11T01:04:04;26.10;;;17.07;;
19883;SDS011;10104;50.732;10.174;2022-12-11T01:06:26;29.20;;;17.60;;
19883;SDS011;10104;50.732;10.174;2022-12-11T01:08:48;28.87;;;17.83;;
19883;SDS011;10104;50.732;10.174;2022-12-11T01:11:29;34.53;;;20.17;;
19883;SDS011;10104;50.732;10.174;2022-12-11T01:13:51;30.53;;;19.27;;
19883;SDS011;10104;50.732;10.174;2022-12-11T01:16:13;34.07;;;20.63;;
19883;SDS011;10104;50.732;10.174;2022-12-11T01:18:36;31.07;;;19.10;;
19883;SDS011;10104;50.732;10.174;2022-12-11T01:20:58;29.90;;;18.70;;
19883;SDS011;10104;50.732;10.174;2022-12-11T01:23:19;30.53;;;18.73;;
19883;SDS011;10104;50.732;10.174;2022-12-11T01:25:41;30.10;;;18.83;;
19883;SDS011;10104;50.732;10.174;2022-12-11T01:28:03;34.23;;;20.50;;
19883;SDS011;10104;50.732;10.174;2022-12-11T01:30:26;31.63;;;19.33;;
19883;SDS011;10104;50.732;10.174;2022-12-11T01:32:47;35.07;;;20.07;;
19883;SDS011;10104;50.732;10.174;2022-12-11T01:35:10;33.00;;;20.00;;
19883;SDS011;10104;50.732;10.174;2022-12-11T01:37:33;31.07;;;19.17;;
19883;SDS011;10104;50.732;10.174;2022-12-11T01:39:54;32.87;;;19.40;;
19883;SDS011;10104;50.732;10.174;2022-12-11T01:42:16;35.07;;;19.97;;
19883;SDS011;10104;50.732;10.174;2022-12-11T01:47:00;32.13;;;20.20;;
19883;SDS011;10104;50.732;10.174;2022-12-11T01:49:22;32.43;;;20.33;;
19883;SDS011;10104;50.732;10.174;2022-12-11T01:54:14;28.97;;;19.07;;
19883;SDS011;10104;50.732;10.174;2022-12-11T01:56:37;32.73;;;20.07;;
19883;SDS011;10104;50.732;10.174;2022-12-11T01:59:02;32.70;;;19.50;;
19883;SDS011;10104;50.732;10.174;2022-12-11T02:01:31;31.93;;;19.80;;
19883;SDS011;10104;50.732;10.174;2022-12-11T02:03:56;31.57;;;19.67;;
19883;SDS011;10104;50.732;10.174;2022-12-11T02:06:32;30.43;;;18.87;;
19883;SDS011;10104;50.732;10.174;2022-12-11T02:09:01;31.97;;;19.20;;
19883;SDS011;10104;50.732;10.174;2022-12-11T02:11:28;31.50;;;17.73;;
19883;SDS011;10104;50.732;10.174;2022-12-11T02:14:34;29.13;;;17.97;;
19883;SDS011;10104;50.732;10.174;2022-12-11T02:17:12;28.57;;;17.70;;
19883;SDS011;10104;50.732;10.174;2022-12-11T02:25:25;30.43;;;18.70;;
19883;SDS011;10104;50.732;10.174;2022-12-11T02:28:17;31.53;;;17.63;;
19883;SDS011;10104;50.732;10.174;2022-12-11T02:30:46;28.70;;;17.13;;
19883;SDS011;10104;50.732;10.174;2022-12-11T02:33:11;30.43;;;18.63;;
19883;SDS011;10104;50.732;10.174;2022-12-11T02:35:37;31.43;;;20.17;;
19883;SDS011;10104;50.732;10.174;2022-12-11T02:38:14;34.17;;;19.97;;
19883;SDS011;10104;50.732;10.174;2022-12-11T02:40:39;28.20;;;16.90;;
19883;SDS011;10104;50.732;10.174;2022-12-11T02:43:03;29.23;;;18.47;;
19883;SDS011;10104;50.732;10.174;2022-12-11T02:45:28;29.40;;;18.17;;
19883;SDS011;10104;50.732;10.174;2022-12-11T02:47:51;30.50;;;19.03;;
19883;SDS011;10104;50.732;10.174;2022-12-11T02:50:14;27.37;;;17.77;;
19883;SDS011;10104;50.732;10.174;2022-12-11T02:52:38;27.33;;;17.27;;
19883;SDS011;10104;50.732;10.174;2022-12-11T02:55:02;31.83;;;19.37;;
19883;SDS011;10104;50.732;10.174;2022-12-11T03:00:11;28.73;;;17.90;;
19883;SDS011;10104;50.732;10.174;2022-12-11T03:02:33;27.90;;;17.80;;
19883;SDS011;10104;50.732;10.174;2022-12-11T03:04:56;29.27;;;17.00;;
19883;SDS011;10104;50.732;10.174;2022-12-11T03:07:20;28.63;;;17.60;;
19883;SDS011;10104;50.732;10.174;2022-12-11T03:09:46;24.23;;;16.17;;
19883;SDS011;10104;50.732;10.174;2022-12-11T03:12:09;29.00;;;17.33;;
19883;SDS011;10104;50.732;10.174;2022-12-11T03:14:35;28.10;;;17.40;;
19883;SDS011;10104;50.732;10.174;2022-12-11T03:17:16;25.40;;;16.23;;
19883;SDS011;10104;50.732;10.174;2022-12-11T03:22:21;27.73;;;17.60;;
19883;SDS011;10104;50.732;10.174;2022-12-11T03:25:09;30.67;;;18.83;;
19883;SDS011;10104;50.732;10.174;2022-12-11T03:27:36;30.43;;;18.30;;
19883;SDS011;10104;50.732;10.174;2022-12-11T03:30:07;29.57;;;17.40;;
19883;SDS011;10104;50.732;10.174;2022-12-11T03:32:39;28.73;;;18.03;;
19883;SDS011;10104;50.732;10.174;2022-12-11T03:35:18;27.73;;;16.63;;
19883;SDS011;10104;50.732;10.174;2022-12-11T03:37:45;25.43;;;15.70;;
19883;SDS011;10104;50.732;10.174;2022-12-11T03:40:12;26.27;;;16.27;;
19883;SDS011;10104;50.732;10.174;2022-12-11T03:42:37;29.03;;;17.17;;
19883;SDS011;10104;50.732;10.174;2022-12-11T03:45:00;27.37;;;16.23;;
19883;SDS011;10104;50.732;10.174;2022-12-11T03:47:24;27.03;;;17.10;;
19883;SDS011;10104;50.732;10.174;2022-12-11T03:49:48;25.47;;;15.93;;
19883;SDS011;10104;50.732;10.174;2022-12-11T03:52:12;24.37;;;15.30;;
19883;SDS011;10104;50.732;10.174;2022-12-11T03:54:35;23.37;;;14.27;;
19883;SDS011;10104;50.732;10.174;2022-12-11T03:57:00;25.63;;;14.87;;
19883;SDS011;10104;50.732;10.174;2022-12-11T03:59:24;24.23;;;14.60;;
19883;SDS011;10104;50.732;10.174;2022-12-11T04:01:45;23.30;;;14.77;;
19883;SDS011;10104;50.732;10.174;2022-12-11T04:04:07;23.03;;;14.47;;
19883;SDS011;10104;50.732;10.174;2022-12-11T04:06:28;20.17;;;13.50;;
19883;SDS011;10104;50.732;10.174;2022-12-11T04:08:50;24.53;;;13.30;;
19883;SDS011;10104;50.732;10.174;2022-12-11T04:11:11;22.67;;;14.53;;
19883;SDS011;10104;50.732;10.174;2022-12-11T04:13:51;24.73;;;15.27;;
19883;SDS011;10104;50.732;10.174;2022-12-11T04:16:31;22.83;;;14.80;;
19883;SDS011;10104;50.732;10.174;2022-12-11T04:18:53;23.73;;;14.63;;
19883;SDS011;10104;50.732;10.174;2022-12-11T04:21:33;23.40;;;14.53;;
19883;SDS011;10104;50.732;10.174;2022-12-11T04:24:13;23.23;;;14.93;;
19883;SDS011;10104;50.732;10.174;2022-12-11T04:26:37;24.30;;;14.97;;
19883;SDS011;10104;50.732;10.174;2022-12-11T04:28:58;24.83;;;15.57;;
19883;SDS011;10104;50.732;10.174;2022-12-11T04:31:20;23.57;;;15.50;;
19883;SDS011;10104;50.732;10.174;2022-12-11T04:33:43;22.53;;;14.77;;
19883;SDS011;10104;50.732;10.174;2022-12-11T04:36:04;22.23;;;14.13;;
19883;SDS011;10104;50.732;10.174;2022-12-11T04:38:26;23.83;;;14.70;;
19883;SDS011;10104;50.732;10.174;2022-12-11T04:40:48;23.17;;;14.47;;
19883;SDS011;10104;50.732;10.174;2022-12-11T04:43:09;27.17;;;15.37;;
19883;SDS011;10104;50.732;10.174;2022-12-11T04:45:31;23.40;;;14.40;;
19883;SDS011;10104;50.732;10.174;2022-12-11T04:47:52;21.63;;;14.13;;
19883;SDS011;10104;50.732;10.174;2022-12-11T04:50:14;24.87;;;14.97;;
19883;SDS011;10104;50.732;10.174;2022-12-11T04:52:36;26.87;;;15.50;;
19883;SDS011;10104;50.732;10.174;2022-12-11T04:54:57;31.17;;;18.60;;
19883;SDS011;10104;50.732;10.174;2022-12-11T04:57:19;32.67;;;19.33;;
19883;SDS011;10104;50.732;10.174;2022-12-11T04:59:41;28.83;;;17.93;;
19883;SDS011;10104;50.732;10.174;2022-12-11T05:02:03;27.53;;;17.13;;
19883;SDS011;10104;50.732;10.174;2022-12-11T05:04:24;27.57;;;16.87;;
19883;SDS011;10104;50.732;10.174;2022-12-11T05:06:47;27.03;;;16.90;;
19883;SDS011;10104;50.732;10.174;2022-12-11T05:09:10;35.23;;;18.27;;
19883;SDS011;10104;50.732;10.174;2022-12-11T05:11:32;29.47;;;17.77;;
19883;SDS011;10104;50.732;10.174;2022-12-11T05:13:54;27.10;;;16.60;;
19883;SDS011;10104;50.732;10.174;2022-12-11T05:16:15;27.97;;;16.87;;
19883;SDS011;10104;50.732;10.174;2022-12-11T05:18:37;29.33;;;17.80;;
19883;SDS011;10104;50.732;10.174;2022-12-11T05:20:59;26.50;;;16.40;;
19883;SDS011;10104;50.732;10.174;2022-12-11T05:23:23;26.43;;;15.63;;
19883;SDS011;10104;50.732;10.174;2022-12-11T05:25:50;27.00;;;16.53;;
19883;SDS011;10104;50.732;10.174;2022-12-11T05:28:12;26.53;;;16.30;;
19883;SDS011;10104;50.732;10.174;2022-12-11T05:30:34;25.07;;;15.33;;
19883;SDS011;10104;50.732;10.174;2022-12-11T05:32:55;26.90;;;16.43;;
19883;SDS011;10104;50.732;10.174;2022-12-11T05:35:17;25.27;;;15.37;;
19883;SDS011;10104;50.732;10.174;2022-12-11T05:37:38;25.53;;;16.43;;
19883;SDS011;10104;50.732;10.174;2022-12-11T05:40:01;25.57;;;15.60;;
19883;SDS011;10104;50.732;10.174;2022-12-11T05:42:22;23.37;;;14.73;;
19883;SDS011;10104;50.732;10.174;2022-12-11T05:44:49;23.43;;;14.63;;
19883;SDS011;10104;50.732;10.174;2022-12-11T05:47:10;24.33;;;14.77;;
19883;SDS011;10104;50.732;10.174;2022-12-11T05:49:32;23.17;;;14.43;;
19883;SDS011;10104;50.732;10.174;2022-12-11T05:51:53;23.07;;;14.40;;
19883;SDS011;10104;50.732;10.174;2022-12-11T05:54:15;23.83;;;14.97;;
19883;SDS011;10104;50.732;10.174;2022-12-11T05:56:37;23.63;;;14.13;;
19883;SDS011;10104;50.732;10.174;2022-12-11T05:58:59;24.87;;;15.17;;
19883;SDS011;10104;50.732;10.174;2022-12-11T06:01:22;25.63;;;14.53;;
19883;SDS011;10104;50.732;10.174;2022-12-11T06:03:52;23.07;;;14.63;;
19883;SDS011;10104;50.732;10.174;2022-12-11T06:06:15;23.97;;;14.83;;
19883;SDS011;10104;50.732;10.174;2022-12-11T06:08:37;22.93;;;13.67;;
19883;SDS011;10104;50.732;10.174;2022-12-11T06:10:59;20.63;;;13.77;;
19883;SDS011;10104;50.732;10.174;2022-12-11T06:13:21;20.60;;;13.63;;
19883;SDS011;10104;50.732;10.174;2022-12-11T06:15:43;22.63;;;13.97;;
19883;SDS011;10104;50.732;10.174;2022-12-11T06:18:04;21.13;;;13.33;;
19883;SDS011;10104;50.732;10.174;2022-12-11T06:20:26;21.53;;;12.87;;
19883;SDS011;10104;50.732;10.174;2022-12-11T06:22:50;20.77;;;12.97;;
19883;SDS011;10104;50.732;10.174;2022-12-11T06:25:12;18.83;;;12.53;;
19883;SDS011;10104;50.732;10.174;2022-12-11T06:27:34;22.80;;;14.07;;
19883;SDS011;10104;50.732;10.174;2022-12-11T06:29:55;20.70;;;13.40;;
19883;SDS011;10104;50.732;10.174;2022-12-11T06:32:17;22.07;;;13.10;;
19883;SDS011;10104;50.732;10.174;2022-12-11T06:34:38;20.47;;;12.97;;
19883;SDS011;10104;50.732;10.174;2022-12-11T06:37:00;16.10;;;10.97;;
19883;SDS011;10104;50.732;10.174;2022-12-11T06:39:21;19.17;;;11.67;;
19883;SDS011;10104;50.732;10.174;2022-12-11T06:41:43;17.97;;;10.73;;
19883;SDS011;10104;50.732;10.174;2022-12-11T06:44:04;19.67;;;11.43;;
19883;SDS011;10104;50.732;10.174;2022-12-11T06:46:26;20.57;;;13.03;;
19883;SDS011;10104;50.732;10.174;2022-12-11T06:48:47;21.57;;;13.53;;
19883;SDS011;10104;50.732;10.174;2022-12-11T06:51:10;20.30;;;12.83;;
19883;SDS011;10104;50.732;10.174;2022-12-11T06:53:33;20.43;;;12.40;;
19883;SDS011;10104;50.732;10.174;2022-12-11T06:55:55;17.73;;;11.97;;
19883;SDS011;10104;50.732;10.174;2022-12-11T06:58:22;19.27;;;12.30;;
19883;SDS011;10104;50.732;10.174;2022-12-11T07:00:43;19.07;;;12.43;;
19883;SDS011;10104;50.732;10.174;2022-12-11T07:03:05;20.17;;;13.00;;
19883;SDS011;10104;50.732;10.174;2022-12-11T07:05:27;18.43;;;11.73;;
19883;SDS011;10104;50.732;10.174;2022-12-11T07:07:48;21.17;;;13.00;;
19883;SDS011;10104;50.732;10.174;2022-12-11T07:10:10;18.00;;;12.27;;
19883;SDS011;10104;50.732;10.174;2022-12-11T07:12:31;20.27;;;13.03;;
19883;SDS011;10104;50.732;10.174;2022-12-11T07:14:53;19.03;;;11.63;;
19883;SDS011;10104;50.732;10.174;2022-12-11T07:17:14;20.87;;;12.93;;
19883;SDS011;10104;50.732;10.174;2022-12-11T07:19:36;19.87;;;13.33;;
19883;SDS011;10104;50.732;10.174;2022-12-11T07:21:57;23.17;;;14.17;;
19883;SDS011;10104;50.732;10.174;2022-12-11T07:24:19;28.03;;;15.57;;
19883;SDS011;10104;50.732;10.174;2022-12-11T07:26:40;25.20;;;15.53;;
19883;SDS011;10104;50.732;10.174;2022-12-11T07:29:02;23.33;;;14.83;;
19883;SDS011;10104;50.732;10.174;2022-12-11T07:31:24;20.03;;;12.87;;
19883;SDS011;10104;50.732;10.174;2022-12-11T07:33:51;21.70;;;12.90;;
19883;SDS011;10104;50.732;10.174;2022-12-11T07:36:14;25.90;;;14.40;;
19883;SDS011;10104;50.732;10.174;2022-12-11T07:38:36;20.67;;;13.63;;
19883;SDS011;10104;50.732;10.174;2022-12-11T07:41:04;22.13;;;14.13;;
19883;SDS011;10104;50.732;10.174;2022-12-11T07:43:28;24.13;;;15.23;;
19883;SDS011;10104;50.732;10.174;2022-12-11T07:45:50;26.60;;;15.60;;
19883;SDS011;10104;50.732;10.174;2022-12-11T07:48:11;24.13;;;14.83;;
19883;SDS011;10104;50.732;10.174;2022-12-11T07:50:33;24.43;;;14.90;;
19883;SDS011;10104;50.732;10.174;2022-12-11T07:53:00;21.83;;;13.97;;
19883;SDS011;10104;50.732;10.174;2022-12-11T07:55:21;21.80;;;14.03;;
19883;SDS011;10104;50.732;10.174;2022-12-11T07:57:43;20.83;;;13.87;;
19883;SDS011;10104;50.732;10.174;2022-12-11T08:00:04;28.03;;;13.33;;
19883;SDS011;10104;50.732;10.174;2022-12-11T08:02:26;30.27;;;17.77;;
19883;SDS011;10104;50.732;10.174;2022-12-11T08:04:55;22.93;;;14.13;;
19883;SDS011;10104;50.732;10.174;2022-12-11T08:07:17;23.33;;;14.43;;
19883;SDS011;10104;50.732;10.174;2022-12-11T08:09:38;23.47;;;14.07;;
19883;SDS011;10104;50.732;10.174;2022-12-11T08:12:00;22.73;;;14.20;;
19883;SDS011;10104;50.732;10.174;2022-12-11T08:14:21;21.43;;;14.10;;
19883;SDS011;10104;50.732;10.174;2022-12-11T08:16:43;21.47;;;13.83;;
19883;SDS011;10104;50.732;10.174;2022-12-11T08:19:04;21.23;;;13.27;;
19883;SDS011;10104;50.732;10.174;2022-12-11T08:21:26;22.37;;;14.00;;
19883;SDS011;10104;50.732;10.174;2022-12-11T08:23:49;20.73;;;13.47;;
19883;SDS011;10104;50.732;10.174;2022-12-11T08:26:14;23.43;;;14.20;;
19883;SDS011;10104;50.732;10.174;2022-12-11T08:28:37;21.67;;;14.20;;
19883;SDS011;10104;50.732;10.174;2022-12-11T08:30:58;18.03;;;12.27;;
19883;SDS011;10104;50.732;10.174;2022-12-11T08:33:20;21.03;;;13.53;;
19883;SDS011;10104;50.732;10.174;2022-12-11T08:35:42;22.23;;;13.50;;
19883;SDS011;10104;50.732;10.174;2022-12-11T08:38:05;21.57;;;13.97;;
19883;SDS011;10104;50.732;10.174;2022-12-11T08:40:26;22.23;;;13.73;;
19883;SDS011;10104;50.732;10.174;2022-12-11T08:42:48;24.77;;;13.93;;
19883;SDS011;10104;50.732;10.174;2022-12-11T08:45:10;20.13;;;13.00;;
19883;SDS011;10104;50.732;10.174;2022-12-11T08:47:32;23.33;;;13.93;;
19883;SDS011;10104;50.732;10.174;2022-12-11T08:49:53;24.07;;;14.33;;
19883;SDS011;10104;50.732;10.174;2022-12-11T08:52:15;24.10;;;14.20;;
19883;SDS011;10104;50.732;10.174;2022-12-11T08:54:36;26.73;;;15.10;;
19883;SDS011;10104;50.732;10.174;2022-12-11T08:56:58;21.43;;;14.03;;
19883;SDS011;10104;50.732;10.174;2022-12-11T08:59:19;24.27;;;15.07;;
19883;SDS011;10104;50.732;10.174;2022-12-11T09:01:41;22.77;;;13.60;;
19883;SDS011;10104;50.732;10.174;2022-12-11T09:04:02;19.80;;;13.40;;
19883;SDS011;10104;50.732;10.174;2022-12-11T09:06:25;21.83;;;13.90;;
19883;SDS011;10104;50.732;10.174;2022-12-11T09:08:49;22.03;;;13.63;;
19883;SDS011;10104;50.732;10.174;2022-12-11T09:11:15;18.97;;;13.33;;
19883;SDS011;10104;50.732;10.174;2022-12-11T09:13:39;20.27;;;13.03;;
19883;SDS011;10104;50.732;10.174;2022-12-11T09:16:02;23.63;;;14.07;;
19883;SDS011;10104;50.732;10.174;2022-12-11T09:18:25;21.00;;;13.10;;
19883;SDS011;10104;50.732;10.174;2022-12-11T09:20:47;17.67;;;10.70;;
19883;SDS011;10104;50.732;10.174;2022-12-11T09:23:08;17.70;;;11.07;;
19883;SDS011;10104;50.732;10.174;2022-12-11T09:25:30;19.40;;;12.30;;
19883;SDS011;10104;50.732;10.174;2022-12-11T09:27:51;18.10;;;12.27;;
19883;SDS011;10104;50.732;10.174;2022-12-11T09:30:13;17.50;;;11.00;;
19883;SDS011;10104;50.732;10.174;2022-12-11T09:32:35;15.27;;;10.37;;
19883;SDS011;10104;50.732;10.174;2022-12-11T09:34:57;13.73;;;8.77;;
19883;SDS011;10104;50.732;10.174;2022-12-11T09:37:18;16.57;;;10.90;;
19883;SDS011;10104;50.732;10.174;2022-12-11T09:39:40;15.50;;;10.40;;
19883;SDS011;10104;50.732;10.174;2022-12-11T09:42:10;16.03;;;10.07;;
19883;SDS011;10104;50.732;10.174;2022-12-11T09:44:53;14.73;;;9.67;;
19883;SDS011;10104;50.732;10.174;2022-12-11T09:47:19;14.47;;;9.40;;
19883;SDS011;10104;50.732;10.174;2022-12-11T09:49:44;17.20;;;11.13;;
19883;SDS011;10104;50.732;10.174;2022-12-11T09:52:11;15.57;;;10.83;;
19883;SDS011;10104;50.732;10.174;2022-12-11T09:54:43;58.37;;;32.37;;
19883;SDS011;10104;50.732;10.174;2022-12-11T09:57:22;27.90;;;14.93;;
19883;SDS011;10104;50.732;10.174;2022-12-11T10:00:03;21.80;;;13.50;;
19883;SDS011;10104;50.732;10.174;2022-12-11T10:02:30;16.60;;;10.67;;
19883;SDS011;10104;50.732;10.174;2022-12-11T10:05:03;59.63;;;31.40;;
19883;SDS011;10104;50.732;10.174;2022-12-11T10:13:34;29.40;;;19.50;;
19883;SDS011;10104;50.732;10.174;2022-12-11T10:18:40;17.73;;;11.40;;
19883;SDS011;10104;50.732;10.174;2022-12-11T10:21:02;13.83;;;8.77;;
19883;SDS011;10104;50.732;10.174;2022-12-11T10:23:35;14.80;;;9.70;;
19883;SDS011;10104;50.732;10.174;2022-12-11T10:26:05;11.60;;;7.73;;
19883;SDS011;10104;50.732;10.174;2022-12-11T10:28:37;13.60;;;8.63;;
19883;SDS011;10104;50.732;10.174;2022-12-11T10:36:40;16.37;;;10.30;;
19883;SDS011;10104;50.732;10.174;2022-12-11T10:39:09;15.30;;;10.07;;
19883;SDS011;10104;50.732;10.174;2022-12-11T10:41:36;14.37;;;9.20;;
19883;SDS011;10104;50.732;10.174;2022-12-11T10:43:59;14.83;;;10.27;;
19883;SDS011;10104;50.732;10.174;2022-12-11T10:46:23;15.73;;;9.90;;
19883;SDS011;10104;50.732;10.174;2022-12-11T10:49:04;14.93;;;9.83;;
19883;SDS011;10104;50.732;10.174;2022-12-11T10:51:35;13.93;;;9.07;;
19883;SDS011;10104;50.732;10.174;2022-12-11T10:54:05;15.80;;;10.20;;
19883;SDS011;10104;50.732;10.174;2022-12-11T10:56:37;13.27;;;8.63;;
19883;SDS011;10104;50.732;10.174;2022-12-11T10:58:59;16.30;;;10.23;;
19883;SDS011;10104;50.732;10.174;2022-12-11T11:01:22;13.37;;;9.73;;
19883;SDS011;10104;50.732;10.174;2022-12-11T11:03:53;14.87;;;8.47;;
19883;SDS011;10104;50.732;10.174;2022-12-11T11:06:26;13.10;;;8.00;;
19883;SDS011;10104;50.732;10.174;2022-12-11T11:08:49;14.50;;;9.20;;
19883;SDS011;10104;50.732;10.174;2022-12-11T11:13:43;15.33;;;9.03;;
19883;SDS011;10104;50.732;10.174;2022-12-11T11:16:05;15.10;;;9.13;;
19883;SDS011;10104;50.732;10.174;2022-12-11T11:18:32;16.10;;;8.57;;
19883;SDS011;10104;50.732;10.174;2022-12-11T11:20:54;13.63;;;9.27;;
19883;SDS011;10104;50.732;10.174;2022-12-11T11:23:17;14.47;;;8.93;;
19883;SDS011;10104;50.732;10.174;2022-12-11T11:25:48;18.63;;;12.50;;
19883;SDS011;10104;50.732;10.174;2022-12-11T11:28:16;17.77;;;10.60;;
19883;SDS011;10104;50.732;10.174;2022-12-11T11:30:41;16.20;;;10.40;;
19883;SDS011;10104;50.732;10.174;2022-12-11T11:33:20;13.70;;;9.07;;
19883;SDS011;10104;50.732;10.174;2022-12-11T11:35:53;15.20;;;9.70;;
19883;SDS011;10104;50.732;10.174;2022-12-11T11:38:17;14.50;;;10.27;;
19883;SDS011;10104;50.732;10.174;2022-12-11T11:40:42;16.97;;;10.80;;
19883;SDS011;10104;50.732;10.174;2022-12-11T11:43:15;16.37;;;10.67;;
19883;SDS011;10104;50.732;10.174;2022-12-11T11:48:23;18.37;;;10.83;;
19883;SDS011;10104;50.732;10.174;2022-12-11T11:50:50;18.60;;;11.20;;
19883;SDS011;10104;50.732;10.174;2022-12-11T11:53:15;17.80;;;11.50;;
19883;SDS011;10104;50.732;10.174;2022-12-11T11:55:53;17.30;;;10.97;;
19883;SDS011;10104;50.732;10.174;2022-12-11T11:58:20;16.80;;;10.77;;
19883;SDS011;10104;50.732;10.174;2022-12-11T12:00:45;19.33;;;12.37;;
19883;SDS011;10104;50.732;10.174;2022-12-11T12:03:25;23.23;;;14.70;;
19883;SDS011;10104;50.732;10.174;2022-12-11T12:16:08;18.63;;;11.47;;
19883;SDS011;10104;50.732;10.174;2022-12-11T12:19:00;20.73;;;12.80;;
19883;SDS011;10104;50.732;10.174;2022-12-11T12:21:34;18.90;;;11.20;;
19883;SDS011;10104;50.732;10.174;2022-12-11T12:26:45;19.60;;;11.53;;
19883;SDS011;10104;50.732;10.174;2022-12-11T12:32:13;14.87;;;9.43;;
19883;SDS011;10104;50.732;10.174;2022-12-11T12:34:52;15.50;;;9.97;;
19883;SDS011;10104;50.732;10.174;2022-12-11T12:42:42;15.70;;;10.20;;
19883;SDS011;10104;50.732;10.174;2022-12-11T12:47:34;13.57;;;9.13;;
19883;SDS011;10104;50.732;10.174;2022-12-11T12:49:57;16.77;;;9.83;;
19883;SDS011;10104;50.732;10.174;2022-12-11T12:52:24;18.50;;;11.03;;
19883;SDS011;10104;50.732;10.174;2022-12-11T12:54:52;14.83;;;9.57;;
19883;SDS011;10104;50.732;10.174;2022-12-11T12:57:35;17.17;;;10.23;;
19883;SDS011;10104;50.732;10.174;2022-12-11T12:59:58;16.20;;;10.53;;
19883;SDS011;10104;50.732;10.174;2022-12-11T13:02:20;18.70;;;10.87;;
19883;SDS011;10104;50.732;10.174;2022-12-11T13:04:42;15.97;;;9.03;;
19883;SDS011;10104;50.732;10.174;2022-12-11T13:07:20;18.13;;;10.80;;
19883;SDS011;10104;50.732;10.174;2022-12-11T13:12:39;17.40;;;11.27;;
19883;SDS011;10104;50.732;10.174;2022-12-11T13:15:21;20.13;;;11.53;;
19883;SDS011;10104;50.732;10.174;2022-12-11T13:17:44;19.43;;;11.60;;
19883;SDS011;10104;50.732;10.174;2022-12-11T13:20:25;20.23;;;11.60;;
19883;SDS011;10104;50.732;10.174;2022-12-11T13:25:27;16.50;;;10.97;;
19883;SDS011;10104;50.732;10.174;2022-12-11T13:27:50;20.37;;;11.97;;
19883;SDS011;10104;50.732;10.174;2022-12-11T13:32:48;26.27;;;15.73;;
19883;SDS011;10104;50.732;10.174;2022-12-11T13:35:17;20.87;;;13.90;;
19883;SDS011;10104;50.732;10.174;2022-12-11T13:37:39;24.50;;;15.37;;
19883;SDS011;10104;50.732;10.174;2022-12-11T13:40:07;21.53;;;14.07;;
19883;SDS011;10104;50.732;10.174;2022-12-11T13:42:44;20.97;;;13.53;;
19883;SDS011;10104;50.732;10.174;2022-12-11T13:45:25;26.70;;;14.37;;
19883;SDS011;10104;50.732;10.174;2022-12-11T13:47:49;18.83;;;12.50;;
19883;SDS011;10104;50.732;10.174;2022-12-11T13:50:17;21.70;;;13.30;;
19883;SDS011;10104;50.732;10.174;2022-12-11T13:52:51;21.90;;;14.03;;
19883;SDS011;10104;50.732;10.174;2022-12-11T13:55:20;21.47;;;14.20;;
19883;SDS011;10104;50.732;10.174;2022-12-11T13:57:45;22.73;;;14.20;;
19883;SDS011;10104;50.732;10.174;2022-12-11T14:00:18;25.00;;;13.97;;
19883;SDS011;10104;50.732;10.174;2022-12-11T14:02:45;22.17;;;14.03;;
19883;SDS011;10104;50.732;10.174;2022-12-11T14:05:07;22.10;;;14.40;;
19883;SDS011;10104;50.732;10.174;2022-12-11T14:07:35;25.30;;;14.77;;
19883;SDS011;10104;50.732;10.174;2022-12-11T14:10:02;24.30;;;16.37;;
19883;SDS011;10104;50.732;10.174;2022-12-11T14:12:28;22.93;;;15.03;;
19883;SDS011;10104;50.732;10.174;2022-12-11T14:14:52;21.83;;;13.40;;
19883;SDS011;10104;50.732;10.174;2022-12-11T14:17:22;23.47;;;13.13;;
19883;SDS011;10104;50.732;10.174;2022-12-11T14:19:47;25.40;;;14.03;;
19883;SDS011;10104;50.732;10.174;2022-12-11T14:22:15;22.37;;;14.30;;
19883;SDS011;10104;50.732;10.174;2022-12-11T14:24:46;21.73;;;14.10;;
19883;SDS011;10104;50.732;10.174;2022-12-11T14:27:15;24.47;;;14.40;;
19883;SDS011;10104;50.732;10.174;2022-12-11T14:29:38;25.53;;;14.83;;
19883;SDS011;10104;50.732;10.174;2022-12-11T14:32:03;24.73;;;15.17;;
19883;SDS011;10104;50.732;10.174;2022-12-11T14:34:31;27.47;;;15.93;;
19883;SDS011;10104;50.732;10.174;2022-12-11T14:37:04;24.40;;;14.07;;
19883;SDS011;10104;50.732;10.174;2022-12-11T14:42:06;23.10;;;14.87;;
19883;SDS011;10104;50.732;10.174;2022-12-11T14:44:34;25.27;;;14.70;;
19883;SDS011;10104;50.732;10.174;2022-12-11T14:47:12;25.10;;;14.17;;
19883;SDS011;10104;50.732;10.174;2022-12-11T14:52:14;24.33;;;14.13;;
19883;SDS011;10104;50.732;10.174;2022-12-11T14:54:41;22.53;;;14.03;;
19883;SDS011;10104;50.732;10.174;2022-12-11T14:57:06;21.80;;;14.13;;
19883;SDS011;10104;50.732;10.174;2022-12-11T14:59:37;25.97;;;14.67;;
19883;SDS011;10104;50.732;10.174;2022-12-11T15:02:21;24.27;;;15.03;;
19883;SDS011;10104;50.732;10.174;2022-12-11T15:04:58;25.47;;;14.87;;
19883;SDS011;10104;50.732;10.174;2022-12-11T15:07:25;22.30;;;13.20;;
19883;SDS011;10104;50.732;10.174;2022-12-11T15:09:47;25.97;;;15.53;;
19883;SDS011;10104;50.732;10.174;2022-12-11T15:12:12;22.70;;;13.87;;